Time;durP1;ratioP1;P1;durP2;ratioP2;P2;SDS_P1;SDS_P2;PMS_P1;PMS_P2;Temp;Humidity;BMP_temperature;BMP_pressure;BME280_temperature;BME280_humidity;BME280_pressure;Samples;Min_cycle;Max_cycle;Signal;HPM_P1;HPM_P2
2021/12/31 00:00:33;;;;;;;18.75;4.15;;;11.80;99.90;;;;;;4859239;29;20055;-61
2021/12/31 00:02:58;;;;;;;20.42;4.43;;;11.80;99.90;;;;;;4864668;29;20060;-59
2021/12/31 00:05:25;;;;;;;26.23;4.20;;;11.80;99.90;;;;;;4877484;29;20423;-61
2021/12/31 00:07:50;;;;;;;19.92;4.78;;;11.80;99.90;;;;;;4879106;29;20563;-61
2021/12/31 00:10:16;;;;;;;21.40;4.22;;;11.70;99.90;;;;;;4879429;29;21330;-60
2021/12/31 00:12:43;;;;;;;20.25;3.88;;;11.70;99.90;;;;;;4877619;29;20071;-61
2021/12/31 00:15:11;;;;;;;22.15;4.60;;;11.70;99.90;;;;;;4864656;29;20123;-61
2021/12/31 00:17:38;;;;;;;24.77;4.47;;;11.70;99.90;;;;;;4860974;29;20059;-61
2021/12/31 00:20:09;;;;;;;18.05;4.32;;;11.70;99.90;;;;;;4856508;29;20056;-60
2021/12/31 00:25:20;;;;;;;25.02;4.28;;;11.70;99.90;;;;;;4877600;29;20052;-61
2021/12/31 00:27:46;;;;;;;21.75;3.63;;;11.70;99.90;;;;;;4878270;29;20147;-60
2021/12/31 00:30:13;;;;;;;20.63;3.88;;;11.60;99.90;;;;;;4863603;29;20104;-61
2021/12/31 00:32:39;;;;;;;24.10;4.47;;;11.70;99.90;;;;;;4864134;29;20053;-61
2021/12/31 00:35:07;;;;;;;22.50;4.40;;;11.60;99.90;;;;;;4862862;29;20499;-60
2021/12/31 00:37:35;;;;;;;23.80;4.55;;;11.60;99.90;;;;;;4864771;29;20057;-61
2021/12/31 00:40:05;;;;;;;26.40;4.90;;;11.60;99.90;;;;;;4877109;29;20051;-61
2021/12/31 00:42:30;;;;;;;26.40;4.53;;;11.60;99.90;;;;;;4848312;29;20055;-60
2021/12/31 00:44:57;;;;;;;18.23;4.85;;;11.50;99.90;;;;;;4865196;29;20049;-61
2021/12/31 00:47:23;;;;;;;20.75;4.30;;;11.60;99.90;;;;;;4879155;29;20175;-60
2021/12/31 00:49:48;;;;;;;29.05;5.07;;;11.50;99.90;;;;;;4860585;29;20056;-60
2021/12/31 00:52:15;;;;;;;23.23;5.07;;;11.50;99.90;;;;;;4862820;29;20040;-61
2021/12/31 00:54:41;;;;;;;18.20;4.50;;;11.50;99.90;;;;;;4862157;29;20052;-61
2021/12/31 00:57:07;;;;;;;20.67;4.72;;;11.50;99.90;;;;;;4874764;29;21148;-61
2021/12/31 00:59:35;;;;;;;25.02;4.25;;;11.50;99.90;;;;;;4878450;29;20193;-59
2021/12/31 01:02:03;;;;;;;22.45;4.05;;;11.60;99.90;;;;;;4877923;29;20500;-60
2021/12/31 01:04:30;;;;;;;26.40;5.35;;;11.60;99.90;;;;;;4863158;29;20059;-59
2021/12/31 01:06:57;;;;;;;22.52;4.65;;;11.60;99.90;;;;;;4842512;29;20052;-59
2021/12/31 01:09:23;;;;;;;25.35;5.00;;;11.50;99.90;;;;;;4879287;29;20059;-60
2021/12/31 01:11:50;;;;;;;26.42;4.40;;;11.50;99.90;;;;;;4859608;29;20083;-61
2021/12/31 01:14:40;;;;;;;25.92;4.60;;;11.50;99.90;;;;;;4846619;29;20210;-61
2021/12/31 01:17:06;;;;;;;17.80;4.30;;;11.50;99.90;;;;;;4874411;29;20059;-61
2021/12/31 01:19:45;;;;;;;21.33;4.90;;;11.60;99.90;;;;;;4877373;29;20040;-60
2021/12/31 01:22:21;;;;;;;22.85;4.43;;;11.60;99.90;;;;;;4862237;29;20075;-60
2021/12/31 01:24:47;;;;;;;26.75;5.40;;;11.60;99.90;;;;;;4879758;29;20058;-61
2021/12/31 01:27:14;;;;;;;28.70;4.90;;;11.60;99.90;;;;;;4876433;29;20056;-61
2021/12/31 01:29:40;;;;;;;20.80;4.50;;;11.60;99.90;;;;;;4876886;29;20558;-61
2021/12/31 01:32:06;;;;;;;24.63;4.22;;;11.70;99.90;;;;;;4862890;29;20603;-61
2021/12/31 01:34:32;;;;;;;30.15;4.90;;;11.60;99.90;;;;;;4878443;29;20127;-60
2021/12/31 01:36:59;;;;;;;23.23;4.50;;;11.70;99.90;;;;;;4861053;29;20564;-61
2021/12/31 01:39:26;;;;;;;26.13;4.90;;;11.70;99.90;;;;;;4848095;29;20040;-61
2021/12/31 01:41:53;;;;;;;23.95;4.90;;;11.70;99.90;;;;;;4863629;29;20856;-61
2021/12/31 01:44:23;;;;;;;20.30;3.85;;;11.60;99.90;;;;;;4881350;29;20072;-60
2021/12/31 01:46:57;;;;;;;20.67;4.20;;;11.70;99.90;;;;;;4877017;29;20045;-60
2021/12/31 01:49:27;;;;;;;27.38;5.00;;;11.70;99.90;;;;;;4877259;29;20060;-61
2021/12/31 01:51:53;;;;;;;21.70;4.47;;;11.70;99.90;;;;;;4878443;29;20135;-60
2021/12/31 01:54:19;;;;;;;19.85;4.13;;;11.70;99.90;;;;;;4863336;29;20389;-61
2021/12/31 01:56:46;;;;;;;21.83;4.93;;;11.70;99.90;;;;;;4842687;29;20510;-59
2021/12/31 01:59:15;;;;;;;17.30;3.85;;;11.80;99.90;;;;;;4843093;29;20049;-60
2021/12/31 02:01:40;;;;;;;22.35;4.07;;;11.80;99.90;;;;;;4863569;29;20049;-61
2021/12/31 02:04:06;;;;;;;18.85;3.90;;;11.80;99.90;;;;;;4862479;29;20390;-60
2021/12/31 02:06:34;;;;;;;24.75;4.72;;;11.80;99.90;;;;;;4855751;29;20108;-60
2021/12/31 02:09:03;;;;;;;23.83;4.50;;;11.80;99.90;;;;;;4834656;29;20119;-60
2021/12/31 02:11:29;;;;;;;17.52;3.58;;;11.80;99.90;;;;;;4879608;29;21866;-60
2021/12/31 02:13:56;;;;;;;19.92;4.28;;;11.80;99.90;;;;;;4879866;29;20071;-60
2021/12/31 02:16:22;;;;;;;20.00;4.28;;;11.90;99.90;;;;;;4874674;29;20223;-59
2021/12/31 02:18:48;;;;;;;19.38;4.15;;;11.90;99.90;;;;;;4877322;29;20071;-61
2021/12/31 02:21:15;;;;;;;16.88;4.53;;;11.90;99.90;;;;;;4860673;29;20056;-61
2021/12/31 02:23:46;;;;;;;19.25;3.92;;;11.90;99.90;;;;;;4857560;29;20488;-61
2021/12/31 02:26:13;;;;;;;20.75;4.28;;;12.00;99.90;;;;;;4870771;29;20174;-61
2021/12/31 02:28:40;;;;;;;17.85;3.97;;;12.00;99.90;;;;;;4877221;29;20048;-60
2021/12/31 02:31:06;;;;;;;19.92;4.68;;;12.00;99.90;;;;;;4877983;29;20071;-60
2021/12/31 02:33:33;;;;;;;21.45;4.68;;;11.90;99.90;;;;;;4878123;29;20081;-60
2021/12/31 02:36:02;;;;;;;22.52;4.53;;;11.90;99.90;;;;;;4861943;29;20099;-60
2021/12/31 02:38:28;;;;;;;22.75;4.20;;;11.90;99.90;;;;;;4842484;29;20049;-61
2021/12/31 02:40:54;;;;;;;20.52;3.78;;;11.90;99.90;;;;;;4878278;29;20051;-60
2021/12/31 02:43:20;;;;;;;17.30;3.95;;;11.90;99.90;;;;;;4882484;29;20602;-59
2021/12/31 02:45:47;;;;;;;16.48;3.95;;;11.90;99.90;;;;;;4864592;29;20049;-61
2021/12/31 02:48:13;;;;;;;23.92;4.63;;;11.90;99.90;;;;;;4881580;29;20044;-61
2021/12/31 02:50:41;;;;;;;18.60;4.40;;;11.90;99.90;;;;;;4878231;29;20100;-61
2021/12/31 02:53:11;;;;;;;20.63;4.68;;;11.90;99.90;;;;;;4881883;29;20514;-60
2021/12/31 02:55:38;;;;;;;18.35;4.20;;;11.90;99.90;;;;;;4878628;29;20460;-60
2021/12/31 02:58:05;;;;;;;20.48;4.22;;;11.90;99.90;;;;;;4863852;29;20052;-60
2021/12/31 03:00:33;;;;;;;22.85;4.22;;;11.90;99.90;;;;;;4878862;29;20057;-61
2021/12/31 03:03:00;;;;;;;16.90;3.70;;;11.90;99.90;;;;;;4879468;29;20180;-61
2021/12/31 03:05:30;;;;;;;16.80;3.58;;;11.90;99.90;;;;;;4863216;29;20076;-61
2021/12/31 03:07:58;;;;;;;13.93;3.75;;;11.90;99.90;;;;;;4852070;29;20044;-60
2021/12/31 03:10:26;;;;;;;24.40;3.88;;;11.90;99.90;;;;;;4864350;29;20516;-60
2021/12/31 03:12:53;;;;;;;13.00;3.65;;;11.90;99.90;;;;;;4866576;29;20107;-60
2021/12/31 03:15:20;;;;;;;17.15;3.67;;;11.90;99.90;;;;;;4860338;29;20108;-61
2021/12/31 03:17:46;;;;;;;15.77;3.60;;;12.00;99.90;;;;;;4879641;29;20063;-60
2021/12/31 03:20:17;;;;;;;16.77;3.67;;;12.00;99.90;;;;;;4847009;29;20112;-61
2021/12/31 03:22:43;;;;;;;17.88;4.15;;;12.00;99.90;;;;;;4867639;29;20576;-61
2021/12/31 03:25:10;;;;;;;15.73;4.10;;;12.00;99.90;;;;;;4864740;29;20127;-60
2021/12/31 03:27:37;;;;;;;14.98;3.25;;;12.00;99.90;;;;;;4864482;29;20496;-60
2021/12/31 03:30:04;;;;;;;13.80;4.10;;;12.00;99.90;;;;;;4864820;29;20044;-61
2021/12/31 03:32:30;;;;;;;12.55;3.60;;;12.00;99.90;;;;;;4867917;29;20052;-61
2021/12/31 03:34:56;;;;;;;19.40;4.10;;;12.00;99.90;;;;;;4881734;29;20045;-60
2021/12/31 03:37:22;;;;;;;14.80;4.15;;;12.00;99.90;;;;;;4863493;29;20052;-59
2021/12/31 03:39:48;;;;;;;13.80;3.60;;;12.00;99.90;;;;;;4866888;29;20052;-60
2021/12/31 03:42:16;;;;;;;12.73;4.32;;;12.10;99.90;;;;;;4851956;29;20044;-61
2021/12/31 03:44:45;;;;;;;14.70;4.15;;;12.00;99.90;;;;;;4866444;29;20120;-60
2021/12/31 03:47:11;;;;;;;16.85;4.28;;;12.10;99.90;;;;;;4879986;29;21782;-61
2021/12/31 03:49:37;;;;;;;14.15;3.75;;;12.10;99.90;;;;;;4880462;29;20061;-61
2021/12/31 03:52:03;;;;;;;14.05;3.58;;;12.00;99.90;;;;;;4852732;29;20120;-61
2021/12/31 03:54:29;;;;;;;13.40;4.05;;;12.10;99.90;;;;;;4881493;29;20054;-60
2021/12/31 03:56:55;;;;;;;21.45;4.20;;;12.10;99.90;;;;;;4862191;29;20424;-60
2021/12/31 03:59:21;;;;;;;17.77;3.95;;;12.10;99.90;;;;;;4850970;29;20646;-61
2021/12/31 04:01:47;;;;;;;15.25;3.90;;;12.10;99.90;;;;;;4882743;29;20066;-61
2021/12/31 04:04:13;;;;;;;11.38;3.42;;;12.10;99.90;;;;;;4865836;29;20918;-60
2021/12/31 04:06:39;;;;;;;17.85;3.30;;;12.10;99.90;;;;;;4880842;29;20056;-61
2021/12/31 04:09:06;;;;;;;13.20;3.20;;;12.10;99.90;;;;;;4876986;29;20476;-60
2021/12/31 04:11:32;;;;;;;13.45;3.58;;;12.10;99.90;;;;;;4881093;29;20434;-59
2021/12/31 04:13:58;;;;;;;15.18;3.90;;;12.10;99.90;;;;;;4867610;29;20056;-61
2021/12/31 04:16:24;;;;;;;14.00;3.05;;;12.10;99.90;;;;;;4863495;29;20040;-60
2021/12/31 04:18:50;;;;;;;15.38;3.55;;;12.10;99.90;;;;;;4850089;29;20049;-60
2021/12/31 04:21:18;;;;;;;10.45;2.80;;;12.10;99.90;;;;;;4865650;29;20068;-60
2021/12/31 04:23:52;;;;;;;13.15;3.13;;;12.10;99.90;;;;;;4878974;29;20302;-60
2021/12/31 04:26:18;;;;;;;14.43;3.90;;;12.20;99.90;;;;;;4874793;29;20373;-60
2021/12/31 04:28:45;;;;;;;17.52;3.55;;;12.20;99.90;;;;;;4862203;29;20060;-61
2021/12/31 04:31:11;;;;;;;12.57;2.90;;;12.20;99.90;;;;;;4874318;29;20135;-61
2021/12/31 04:33:37;;;;;;;12.38;3.20;;;12.20;99.90;;;;;;4876031;29;20048;-61
2021/12/31 04:36:04;;;;;;;14.00;3.22;;;12.20;99.90;;;;;;4877914;29;20048;-60
2021/12/31 04:38:29;;;;;;;11.43;3.53;;;12.30;99.90;;;;;;4874474;29;20131;-60
2021/12/31 04:40:55;;;;;;;12.82;3.78;;;12.20;99.90;;;;;;4879254;29;20044;-60
2021/12/31 04:43:21;;;;;;;9.63;3.03;;;12.30;99.90;;;;;;4880353;29;20051;-61
2021/12/31 04:45:47;;;;;;;13.00;3.10;;;12.30;99.90;;;;;;4863887;29;20086;-61
2021/12/31 04:48:14;;;;;;;13.75;3.10;;;12.30;99.90;;;;;;4879161;29;20036;-61
2021/12/31 04:50:40;;;;;;;9.38;3.30;;;12.30;99.90;;;;;;4860051;29;20112;-60
2021/12/31 04:53:07;;;;;;;8.93;3.17;;;12.30;99.90;;;;;;4861437;29;20119;-61
2021/12/31 04:55:33;;;;;;;9.82;2.80;;;12.40;99.90;;;;;;4859136;29;20104;-59
2021/12/31 04:57:59;;;;;;;9.10;2.78;;;12.40;99.90;;;;;;4879440;29;20130;-59
2021/12/31 05:00:25;;;;;;;13.27;3.22;;;12.50;99.90;;;;;;4847229;29;20468;-60
2021/12/31 05:02:51;;;;;;;11.73;3.17;;;12.40;99.90;;;;;;4862171;29;20127;-60
2021/12/31 05:05:17;;;;;;;12.02;3.70;;;12.40;99.90;;;;;;4875978;29;20290;-61
2021/12/31 05:07:42;;;;;;;8.88;2.90;;;12.50;99.90;;;;;;4879381;29;20587;-60
2021/12/31 05:10:09;;;;;;;14.30;3.28;;;12.50;99.90;;;;;;4863204;29;20143;-61
2021/12/31 05:12:37;;;;;;;12.15;3.33;;;12.50;99.90;;;;;;4878258;29;20065;-61
2021/12/31 05:15:07;;;;;;;13.55;3.10;;;12.50;99.90;;;;;;4877157;29;20505;-60
2021/12/31 05:17:33;;;;;;;6.75;3.13;;;12.50;99.90;;;;;;4876909;29;20141;-61
2021/12/31 05:19:59;;;;;;;8.68;3.00;;;12.50;99.90;;;;;;4861388;29;20056;-61
2021/12/31 05:22:25;;;;;;;9.52;3.03;;;12.50;99.90;;;;;;4860857;29;20490;-61
2021/12/31 05:24:51;;;;;;;12.63;2.97;;;12.40;99.90;;;;;;4860167;29;20055;-60
2021/12/31 05:27:17;;;;;;;13.63;3.45;;;12.40;99.90;;;;;;4857279;29;20061;-60
2021/12/31 05:29:43;;;;;;;10.95;3.40;;;12.40;99.90;;;;;;4859190;29;20572;-60
2021/12/31 05:32:08;;;;;;;13.00;3.05;;;12.40;99.90;;;;;;4873572;29;20052;-61
2021/12/31 05:34:34;;;;;;;6.97;2.42;;;12.40;99.90;;;;;;4860971;29;20045;-61
2021/12/31 05:37:00;;;;;;;10.45;3.00;;;12.40;99.90;;;;;;4842723;29;20049;-60
2021/12/31 05:39:26;;;;;;;7.95;2.70;;;12.40;99.90;;;;;;4858657;29;20047;-60
2021/12/31 05:41:53;;;;;;;7.68;2.30;;;12.40;99.90;;;;;;4861952;29;20435;-60
2021/12/31 05:44:20;;;;;;;9.13;2.65;;;12.30;99.90;;;;;;4861243;29;20092;-60
2021/12/31 05:46:49;;;;;;;6.82;2.50;;;12.30;99.90;;;;;;4826127;29;20523;-61
2021/12/31 05:49:15;;;;;;;10.38;2.88;;;12.30;99.90;;;;;;4856489;29;20065;-59
2021/12/31 05:51:41;;;;;;;8.13;2.72;;;12.20;99.90;;;;;;4862662;29;20049;-60
2021/12/31 05:54:07;;;;;;;9.57;2.90;;;12.20;99.90;;;;;;4860538;29;20116;-61
2021/12/31 05:56:33;;;;;;;11.27;3.00;;;12.20;99.90;;;;;;4858527;29;20568;-61
2021/12/31 05:58:59;;;;;;;7.47;2.90;;;12.20;99.90;;;;;;4858264;29;20968;-60
2021/12/31 06:01:24;;;;;;;5.97;2.72;;;12.30;99.90;;;;;;4857518;29;20048;-61
2021/12/31 06:03:50;;;;;;;9.93;2.85;;;12.20;99.90;;;;;;4857392;29;20044;-60
2021/12/31 06:06:16;;;;;;;6.85;2.65;;;12.20;99.90;;;;;;4873556;29;20097;-61
2021/12/31 06:08:42;;;;;;;7.63;2.90;;;12.20;99.90;;;;;;4858472;29;20061;-61
2021/12/31 06:11:09;;;;;;;6.95;2.80;;;12.30;99.90;;;;;;4858399;29;20045;-61
2021/12/31 06:13:36;;;;;;;6.03;2.55;;;12.20;99.90;;;;;;4860872;29;20679;-61
2021/12/31 06:16:04;;;;;;;7.55;2.60;;;12.20;99.90;;;;;;4871156;29;20087;-61
2021/12/31 06:18:30;;;;;;;6.57;2.85;;;12.20;99.90;;;;;;4859778;29;20647;-60
2021/12/31 06:20:56;;;;;;;9.43;2.63;;;12.20;99.90;;;;;;4865730;29;22177;-60
2021/12/31 06:23:21;;;;;;;5.47;2.58;;;12.20;99.90;;;;;;4878939;29;20037;-61
2021/12/31 06:25:47;;;;;;;6.07;2.85;;;12.20;99.90;;;;;;4873623;29;20523;-60
2021/12/31 06:28:13;;;;;;;12.25;3.33;;;12.20;99.90;;;;;;4860906;29;20056;-60
2021/12/31 06:30:39;;;;;;;6.80;2.75;;;12.20;99.90;;;;;;4820329;29;20055;-60
2021/12/31 06:33:05;;;;;;;8.75;2.83;;;12.20;99.90;;;;;;4859837;29;20139;-60
2021/12/31 06:35:31;;;;;;;6.35;2.50;;;12.20;99.90;;;;;;4873053;29;20083;-61
2021/12/31 06:37:58;;;;;;;8.02;2.70;;;12.20;99.90;;;;;;4877405;29;20650;-60
2021/12/31 06:40:25;;;;;;;6.95;2.45;;;12.20;99.90;;;;;;4859680;29;20071;-61
2021/12/31 06:42:51;;;;;;;9.27;2.50;;;12.20;99.90;;;;;;4861731;29;20151;-60
2021/12/31 06:45:17;;;;;;;6.55;2.53;;;12.20;99.90;;;;;;4871289;29;20575;-60
2021/12/31 06:47:43;;;;;;;9.45;2.58;;;12.20;99.90;;;;;;4879979;29;20040;-61
2021/12/31 06:50:09;;;;;;;9.10;2.60;;;12.20;99.90;;;;;;4877942;29;20107;-60
2021/12/31 06:52:39;;;;;;;6.45;2.92;;;12.20;99.90;;;;;;4876777;29;20053;-60
2021/12/31 06:55:06;;;;;;;6.28;2.53;;;12.20;99.90;;;;;;4876055;29;20048;-61
2021/12/31 06:57:32;;;;;;;8.00;3.00;;;12.20;99.90;;;;;;4873039;29;20402;-60
2021/12/31 06:59:58;;;;;;;6.80;2.58;;;12.20;99.90;;;;;;4858961;29;20400;-60
2021/12/31 07:02:24;;;;;;;6.20;2.55;;;12.20;99.90;;;;;;4877196;29;20559;-60
2021/12/31 07:04:50;;;;;;;5.75;2.75;;;12.20;99.90;;;;;;4860720;29;20628;-61
2021/12/31 07:07:16;;;;;;;7.60;2.88;;;12.20;99.90;;;;;;4874761;29;20064;-61
2021/12/31 07:09:42;;;;;;;7.03;2.67;;;12.20;99.90;;;;;;4860851;29;20404;-61
2021/12/31 07:12:08;;;;;;;6.45;3.10;;;12.20;99.90;;;;;;4877661;29;20052;-60
2021/12/31 07:14:33;;;;;;;7.53;2.97;;;12.20;99.90;;;;;;4876097;29;20052;-61
2021/12/31 07:16:59;;;;;;;9.15;2.95;;;12.20;99.90;;;;;;4874736;29;20511;-60
2021/12/31 07:19:25;;;;;;;5.65;2.70;;;12.10;99.90;;;;;;4860672;29;20051;-60
2021/12/31 07:21:51;;;;;;;4.18;2.58;;;12.10;99.90;;;;;;4876735;29;20056;-61
2021/12/31 07:24:17;;;;;;;5.70;2.72;;;12.10;99.90;;;;;;4878771;29;20498;-61
2021/12/31 07:26:43;;;;;;;7.90;2.55;;;12.10;99.90;;;;;;4860144;29;20053;-61
2021/12/31 07:29:09;;;;;;;7.35;2.83;;;12.00;99.90;;;;;;4877536;29;20512;-61
2021/12/31 07:31:35;;;;;;;5.97;3.10;;;12.10;99.90;;;;;;4880828;29;20044;-61
2021/12/31 07:34:01;;;;;;;10.80;3.00;;;12.10;99.90;;;;;;4877208;29;20060;-60
2021/12/31 07:36:29;;;;;;;8.48;2.47;;;12.00;99.90;;;;;;4881436;29;20052;-60
2021/12/31 07:39:01;;;;;;;5.53;2.83;;;12.00;99.90;;;;;;4879756;29;20498;-60
2021/12/31 07:41:27;;;;;;;4.18;2.60;;;12.00;99.90;;;;;;4845683;29;20044;-60
2021/12/31 07:43:53;;;;;;;7.53;3.05;;;12.00;99.90;;;;;;4865716;29;20036;-60
2021/12/31 07:46:19;;;;;;;7.90;2.80;;;12.00;99.90;;;;;;4865149;29;20052;-60
2021/12/31 07:48:45;;;;;;;5.32;2.60;;;12.00;99.90;;;;;;4867262;29;20082;-61
2021/12/31 07:51:10;;;;;;;10.30;2.83;;;12.00;99.90;;;;;;4879930;29;20055;-60
2021/12/31 07:53:36;;;;;;;7.47;2.90;;;11.90;99.90;;;;;;4871179;29;20053;-60
2021/12/31 07:56:03;;;;;;;6.35;2.90;;;12.00;99.90;;;;;;4886305;29;20477;-61
2021/12/31 07:58:29;;;;;;;4.88;2.53;;;11.90;99.90;;;;;;4886475;29;20119;-60
2021/12/31 08:00:54;;;;;;;8.18;3.63;;;11.90;99.90;;;;;;4884800;29;20580;-60
2021/12/31 08:03:20;;;;;;;7.55;2.88;;;11.90;99.90;;;;;;4886906;29;20055;-60
2021/12/31 08:05:46;;;;;;;7.97;2.80;;;12.00;99.90;;;;;;4867515;29;20091;-60
2021/12/31 08:08:12;;;;;;;6.18;2.28;;;12.00;99.90;;;;;;4889453;29;20048;-61
2021/12/31 08:10:39;;;;;;;5.75;2.58;;;11.90;99.90;;;;;;4880169;29;20159;-60
2021/12/31 08:13:04;;;;;;;7.35;2.97;;;11.90;99.90;;;;;;4880889;29;20127;-60
2021/12/31 08:15:31;;;;;;;6.07;2.60;;;11.90;99.90;;;;;;4831210;29;20049;-60
2021/12/31 08:17:57;;;;;;;7.50;2.90;;;11.90;99.90;;;;;;4879783;29;20407;-60
2021/12/31 08:20:24;;;;;;;8.63;2.85;;;11.90;99.90;;;;;;4861736;29;20140;-60
2021/12/31 08:22:51;;;;;;;8.40;2.90;;;12.00;99.90;;;;;;4862627;29;20071;-60
2021/12/31 08:25:17;;;;;;;8.88;3.00;;;11.90;99.90;;;;;;4845849;29;20514;-60
2021/12/31 08:27:43;;;;;;;7.88;2.70;;;12.00;99.90;;;;;;4857316;29;20535;-61
2021/12/31 08:30:10;;;;;;;4.53;2.92;;;12.00;99.90;;;;;;4878519;29;20052;-60
2021/12/31 08:32:37;;;;;;;5.80;2.70;;;12.00;99.90;;;;;;4875651;29;20052;-61
2021/12/31 08:35:04;;;;;;;8.23;3.20;;;12.00;99.90;;;;;;4884298;29;20123;-61
2021/12/31 08:37:30;;;;;;;5.82;2.60;;;12.10;99.90;;;;;;4870849;29;21312;-61
2021/12/31 08:39:57;;;;;;;8.23;3.40;;;12.00;99.90;;;;;;4872396;29;20789;-61
2021/12/31 08:42:24;;;;;;;6.40;2.90;;;12.00;99.90;;;;;;4892471;29;20045;-61
2021/12/31 08:44:50;;;;;;;7.07;2.90;;;12.00;99.90;;;;;;4874476;29;20048;-61
2021/12/31 08:47:16;;;;;;;6.93;3.10;;;12.00;99.90;;;;;;4870518;29;20056;-60
2021/12/31 08:49:42;;;;;;;7.38;2.80;;;12.00;99.90;;;;;;4870534;29;20041;-60
2021/12/31 08:52:07;;;;;;;6.20;2.45;;;12.10;99.90;;;;;;4890313;29;20060;-61
2021/12/31 08:54:33;;;;;;;4.07;2.65;;;12.10;99.90;;;;;;4874111;29;20054;-61
2021/12/31 08:57:01;;;;;;;5.50;2.95;;;12.10;99.90;;;;;;4856340;29;20056;-61
2021/12/31 08:59:27;;;;;;;7.60;2.90;;;12.10;99.90;;;;;;4890601;29;22865;-60
2021/12/31 09:01:53;;;;;;;7.32;3.33;;;12.10;99.90;;;;;;4872457;29;20056;-60
2021/12/31 09:04:19;;;;;;;10.75;3.25;;;12.10;99.90;;;;;;4891196;29;20056;-61
2021/12/31 09:06:44;;;;;;;8.07;2.80;;;12.10;99.90;;;;;;4887027;29;20075;-61
2021/12/31 09:09:10;;;;;;;8.35;2.80;;;12.10;99.90;;;;;;4890309;29;20052;-61
2021/12/31 09:11:36;;;;;;;7.90;2.83;;;12.10;99.90;;;;;;4890096;29;20112;-60
2021/12/31 09:14:02;;;;;;;7.25;2.78;;;12.10;99.90;;;;;;4890065;29;20060;-61
2021/12/31 09:16:28;;;;;;;10.60;3.22;;;12.20;99.90;;;;;;4871209;29;20056;-61
2021/12/31 09:18:54;;;;;;;9.07;3.60;;;12.20;99.90;;;;;;4885666;29;20065;-60
2021/12/31 09:21:22;;;;;;;8.90;3.10;;;12.10;99.90;;;;;;4868158;29;20069;-61
2021/12/31 09:23:48;;;;;;;5.45;2.80;;;12.10;99.90;;;;;;4879218;29;20143;-60
2021/12/31 09:26:15;;;;;;;8.30;2.97;;;12.10;99.90;;;;;;4861707;29;20048;-60
2021/12/31 09:28:41;;;;;;;8.85;2.95;;;12.10;99.90;;;;;;4860887;29;20863;-60
2021/12/31 09:31:08;;;;;;;8.70;3.17;;;12.20;99.90;;;;;;4876953;29;20515;-60
2021/12/31 09:33:35;;;;;;;7.10;2.97;;;12.20;99.90;;;;;;4860696;29;20416;-60
2021/12/31 09:36:01;;;;;;;7.53;2.60;;;12.20;99.90;;;;;;4872790;29;20159;-60
2021/12/31 09:38:27;;;;;;;6.65;2.90;;;12.20;99.90;;;;;;4858894;29;20404;-61
2021/12/31 09:40:53;;;;;;;9.57;3.42;;;12.20;99.90;;;;;;4877552;29;20768;-60
2021/12/31 09:43:20;;;;;;;6.88;3.33;;;12.20;99.90;;;;;;4844193;29;20076;-61
2021/12/31 09:45:50;;;;;;;8.57;3.03;;;12.10;99.90;;;;;;4861185;29;20090;-61
2021/12/31 09:48:20;;;;;;;7.50;3.15;;;12.10;99.90;;;;;;4845476;29;20055;-61
2021/12/31 09:50:49;;;;;;;8.75;3.22;;;12.10;99.90;;;;;;4858922;29;20049;-61
2021/12/31 09:53:16;;;;;;;9.43;3.67;;;12.10;99.90;;;;;;4860864;29;20068;-62
2021/12/31 09:55:51;;;;;;;6.97;3.28;;;12.10;99.90;;;;;;4842306;29;20056;-61
2021/12/31 09:58:19;;;;;;;11.48;3.65;;;12.10;99.90;;;;;;4841192;29;20056;-64
2021/12/31 10:00:47;;;;;;;8.07;3.15;;;12.00;99.90;;;;;;4859045;29;20045;-64
2021/12/31 10:03:22;;;;;;;7.75;3.80;;;12.00;99.90;;;;;;4858655;29;22912;-64
2021/12/31 10:05:52;;;;;;;15.38;4.20;;;12.00;99.90;;;;;;4874332;29;20053;-64
2021/12/31 10:08:24;;;;;;;11.00;3.70;;;11.90;99.90;;;;;;4869895;29;20151;-65
2021/12/31 10:11:09;;;;;;;;;;;11.90;99.90;;;;;;4874328;29;20099;-64
2021/12/31 10:13:53;;;;;;;6.25;3.53;;;11.80;99.90;;;;;;4860951;29;19934;-64
2021/12/31 10:16:23;;;;;;;10.40;3.90;;;11.80;99.90;;;;;;4842613;29;20067;-65
2021/12/31 10:18:50;;;;;;;11.25;4.05;;;11.80;99.90;;;;;;4859512;29;20159;-64
2021/12/31 10:21:19;;;;;;;8.57;3.72;;;11.70;99.90;;;;;;4858685;29;20060;-64
2021/12/31 10:23:47;;;;;;;12.93;4.10;;;11.70;99.90;;;;;;4859549;29;20044;-64
2021/12/31 10:26:19;;;;;;;8.10;3.72;;;11.70;99.90;;;;;;4841796;29;20045;-64
2021/12/31 10:28:57;;;;;;;11.13;3.80;;;11.70;99.90;;;;;;4858073;29;20048;-65
2021/12/31 10:31:23;;;;;;;6.47;3.60;;;11.60;99.90;;;;;;4869900;29;20054;-65
2021/12/31 10:33:50;;;;;;;10.68;3.90;;;11.60;99.90;;;;;;4854971;29;20616;-63
2021/12/31 10:36:37;;;;;;;12.23;3.80;;;11.60;99.90;;;;;;4859020;29;20437;-64
2021/12/31 10:39:27;;;;;;;9.88;4.07;;;11.60;99.90;;;;;;4853091;29;20048;-64
2021/12/31 10:41:59;;;;;;;11.35;4.43;;;11.60;99.90;;;;;;4837664;29;20061;-64
2021/12/31 10:44:49;;;;;;;10.30;5.00;;;11.60;99.90;;;;;;4859254;29;20052;-64
2021/12/31 10:47:21;;;;;;;11.25;5.60;;;11.60;99.90;;;;;;4858158;29;20063;-64
2021/12/31 10:49:59;;;;;;;12.75;5.10;;;11.60;99.90;;;;;;4872507;29;20053;-64
2021/12/31 10:52:29;;;;;;;10.75;4.88;;;11.60;99.90;;;;;;4861267;29;20033;-64
2021/12/31 10:55:04;;;;;;;10.65;4.57;;;11.60;99.90;;;;;;4859479;29;20049;-63
2021/12/31 10:57:35;;;;;;;12.45;4.88;;;11.50;99.90;;;;;;4874055;29;20053;-65
2021/12/31 11:00:03;;;;;;;14.55;5.57;;;11.60;99.90;;;;;;4856556;29;20044;-64
2021/12/31 11:02:31;;;;;;;11.18;4.32;;;11.60;99.90;;;;;;4875133;29;20044;-64
2021/12/31 11:04:57;;;;;;;17.55;4.55;;;11.60;99.90;;;;;;4862107;29;20056;-65
2021/12/31 11:07:29;;;;;;;11.50;4.53;;;11.60;99.90;;;;;;4825909;29;20179;-64
2021/12/31 11:10:00;;;;;;;15.82;4.20;;;11.60;99.90;;;;;;4856244;29;20048;-65
2021/12/31 11:12:27;;;;;;;15.32;4.10;;;11.60;99.90;;;;;;4864174;29;20084;-64
2021/12/31 11:14:54;;;;;;;10.73;4.40;;;11.60;99.90;;;;;;4869788;29;20167;-64
2021/12/31 11:17:20;;;;;;;12.68;4.25;;;11.60;99.90;;;;;;4825045;29;20048;-65
2021/12/31 11:19:49;;;;;;;14.00;6.65;;;11.60;99.90;;;;;;4839338;29;20083;-64
2021/12/31 11:22:17;;;;;;;12.00;5.00;;;11.60;99.90;;;;;;4857124;29;20064;-64
2021/12/31 11:24:44;;;;;;;8.80;4.75;;;11.60;99.90;;;;;;4856236;29;20049;-64
2021/12/31 11:27:42;;;;;;;10.32;4.88;;;11.50;99.90;;;;;;4875336;29;21447;-65
2021/12/31 11:30:32;;;;;;;12.88;5.18;;;11.50;99.90;;;;;;4858944;29;20112;-65
2021/12/31 11:33:00;;;;;;;11.05;5.43;;;11.50;99.90;;;;;;4863071;29;20059;-63
2021/12/31 11:35:46;;;;;;;12.43;5.65;;;11.40;99.90;;;;;;4858998;29;20070;-65
2021/12/31 11:38:21;;;;;;;14.27;5.32;;;11.50;99.90;;;;;;4857572;29;20058;-65
2021/12/31 11:41:07;;;;;;;10.93;5.78;;;11.50;99.90;;;;;;4861829;29;20572;-65
2021/12/31 11:43:35;;;;;;;10.98;5.47;;;11.40;99.90;;;;;;4852428;29;20052;-64
2021/12/31 11:46:15;;;;;;;14.20;6.55;;;11.50;99.90;;;;;;4846189;29;20056;-64
2021/12/31 11:48:49;;;;;;;9.15;5.68;;;11.50;99.90;;;;;;4854572;29;20060;-65
2021/12/31 11:52:01;;;;;;;14.02;5.75;;;11.40;99.90;;;;;;4857728;29;20082;-64
2021/12/31 11:54:28;;;;;;;12.38;5.30;;;11.40;99.90;;;;;;4857576;29;20112;-65
2021/12/31 11:56:57;;;;;;;11.00;5.70;;;11.40;99.90;;;;;;4854882;29;20048;-64
2021/12/31 11:59:34;;;;;;;10.02;5.40;;;11.40;99.90;;;;;;4846027;29;20109;-64
2021/12/31 12:02:15;;;;;;;12.95;5.18;;;11.40;99.90;;;;;;4862124;29;20230;-63
2021/12/31 12:05:07;;;;;;;12.23;5.50;;;11.40;99.90;;;;;;4877723;29;20119;-65
2021/12/31 12:07:46;;;;;;;11.30;5.18;;;11.40;99.90;;;;;;4876547;29;20112;-64
2021/12/31 12:10:19;;;;;;;8.60;4.53;;;11.40;99.90;;;;;;4876499;29;20512;-64
2021/12/31 12:12:50;;;;;;;9.68;5.00;;;11.40;99.90;;;;;;4877242;29;20044;-63
2021/12/31 12:15:19;;;;;;;9.23;5.30;;;11.40;99.90;;;;;;4864225;29;20059;-64
2021/12/31 12:17:46;;;;;;;7.65;4.85;;;11.40;99.90;;;;;;4862099;29;20424;-64
2021/12/31 12:20:18;;;;;;;10.02;4.75;;;11.40;99.90;;;;;;4856314;29;20048;-65
2021/12/31 12:23:11;;;;;;;8.50;4.82;;;11.40;99.90;;;;;;4859490;29;20048;-64
2021/12/31 12:25:37;;;;;;;7.32;4.80;;;11.40;99.90;;;;;;4872554;29;20067;-64
2021/12/31 12:28:07;;;;;;;10.50;4.85;;;11.40;99.90;;;;;;4864057;29;20306;-65
2021/12/31 12:30:36;;;;;;;9.05;4.13;;;11.40;99.90;;;;;;4862777;29;20444;-65
2021/12/31 12:35:33;;;;;;;8.57;4.53;;;11.40;99.90;;;;;;4877852;29;20060;-65
2021/12/31 12:38:05;;;;;;;8.10;4.88;;;11.40;99.90;;;;;;4844725;29;20096;-64
2021/12/31 12:40:45;;;;;;;6.50;4.15;;;11.40;99.90;;;;;;4874198;29;20060;-65
2021/12/31 12:43:36;;;;;;;7.07;4.43;;;11.40;99.90;;;;;;4846853;29;20045;-64
2021/12/31 12:46:05;;;;;;;8.43;4.20;;;11.40;99.90;;;;;;4877074;29;20056;-65
2021/12/31 12:48:34;;;;;;;8.10;3.97;;;11.40;99.90;;;;;;4854318;29;20392;-65
2021/12/31 12:51:02;;;;;;;8.63;4.47;;;11.40;99.90;;;;;;4845389;29;20048;-64